sensor_id;sensor_type;location;lat;lon;timestamp;temperature;humidity
18073;DHT22;9161;47.348;9.648;2022-09-24T00:03:08;12.60;99.90
18073;DHT22;9161;47.348;9.648;2022-09-24T00:08:10;12.60;99.90
18073;DHT22;9161;47.348;9.648;2022-09-24T00:13:15;12.40;99.90
18073;DHT22;9161;47.348;9.648;2022-09-24T00:18:18;12.30;99.90
18073;DHT22;9161;47.348;9.648;2022-09-24T00:23:21;12.40;99.90
18073;DHT22;9161;47.348;9.648;2022-09-24T00:28:25;12.50;99.90
18073;DHT22;9161;47.348;9.648;2022-09-24T00:33:27;12.40;99.90
18073;DHT22;9161;47.348;9.648;2022-09-24T00:38:30;12.60;99.90
18073;DHT22;9161;47.348;9.648;2022-09-24T00:43:36;12.60;99.90
18073;DHT22;9161;47.348;9.648;2022-09-24T00:48:38;12.80;99.90
18073;DHT22;9161;47.348;9.648;2022-09-24T00:53:43;12.90;99.90
18073;DHT22;9161;47.348;9.648;2022-09-24T00:58:50;12.90;99.90
18073;DHT22;9161;47.348;9.648;2022-09-24T01:03:55;12.90;99.90
18073;DHT22;9161;47.348;9.648;2022-09-24T01:08:58;13.10;99.90
18073;DHT22;9161;47.348;9.648;2022-09-24T01:14:27;13.20;99.90
18073;DHT22;9161;47.348;9.648;2022-09-24T01:25:09;13.00;99.90
18073;DHT22;9161;47.348;9.648;2022-09-24T01:30:14;12.90;99.90
18073;DHT22;9161;47.348;9.648;2022-09-24T01:35:19;12.80;99.90
18073;DHT22;9161;47.348;9.648;2022-09-24T01:40:24;12.70;99.90
18073;DHT22;9161;47.348;9.648;2022-09-24T01:45:30;12.80;99.90
18073;DHT22;9161;47.348;9.648;2022-09-24T01:50:39;12.60;99.90
18073;DHT22;9161;47.348;9.648;2022-09-24T01:55:46;13.00;99.90
18073;DHT22;9161;47.348;9.648;2022-09-24T02:00:55;12.90;99.90
18073;DHT22;9161;47.348;9.648;2022-09-24T02:06:02;12.90;99.90
18073;DHT22;9161;47.348;9.648;2022-09-24T02:11:11;13.00;99.90
18073;DHT22;9161;47.348;9.648;2022-09-24T02:16:19;13.30;99.90
18073;DHT22;9161;47.348;9.648;2022-09-24T02:21:23;13.40;99.90
18073;DHT22;9161;47.348;9.648;2022-09-24T02:26:26;13.50;99.90
18073;DHT22;9161;47.348;9.648;2022-09-24T02:31:32;13.50;99.90
18073;DHT22;9161;47.348;9.648;2022-09-24T02:36:37;13.50;99.90
18073;DHT22;9161;47.348;9.648;2022-09-24T02:41:40;13.40;99.90
18073;DHT22;9161;47.348;9.648;2022-09-24T02:46:44;13.30;99.90
18073;DHT22;9161;47.348;9.648;2022-09-24T02:51:46;13.30;99.90
18073;DHT22;9161;47.348;9.648;2022-09-24T02:56:48;13.40;99.90
18073;DHT22;9161;47.348;9.648;2022-09-24T03:01:52;13.40;99.90
18073;DHT22;9161;47.348;9.648;2022-09-24T03:06:54;13.40;99.90
18073;DHT22;9161;47.348;9.648;2022-09-24T03:11:56;13.30;99.90
18073;DHT22;9161;47.348;9.648;2022-09-24T03:17:02;13.30;99.90
18073;DHT22;9161;47.348;9.648;2022-09-24T03:22:04;13.20;99.90
18073;DHT22;9161;47.348;9.648;2022-09-24T03:27:05;13.10;99.90
18073;DHT22;9161;47.348;9.648;2022-09-24T03:32:09;13.10;99.90
18073;DHT22;9161;47.348;9.648;2022-09-24T03:37:11;13.00;99.90
18073;DHT22;9161;47.348;9.648;2022-09-24T03:42:13;13.10;99.90
18073;DHT22;9161;47.348;9.648;2022-09-24T03:47:16;13.00;99.90
18073;DHT22;9161;47.348;9.648;2022-09-24T03:52:18;13.00;99.90
18073;DHT22;9161;47.348;9.648;2022-09-24T03:57:21;13.00;99.90
18073;DHT22;9161;47.348;9.648;2022-09-24T04:02:24;13.00;99.90
18073;DHT22;9161;47.348;9.648;2022-09-24T04:07:26;12.90;99.90
18073;DHT22;9161;47.348;9.648;2022-09-24T04:12:28;12.90;99.90
18073;DHT22;9161;47.348;9.648;2022-09-24T04:17:31;12.80;99.90
18073;DHT22;9161;47.348;9.648;2022-09-24T04:22:33;12.80;99.90
18073;DHT22;9161;47.348;9.648;2022-09-24T04:27:36;12.80;99.90
18073;DHT22;9161;47.348;9.648;2022-09-24T04:32:40;12.60;99.90
18073;DHT22;9161;47.348;9.648;2022-09-24T04:37:42;12.60;99.90
18073;DHT22;9161;47.348;9.648;2022-09-24T04:42:44;12.50;99.90
18073;DHT22;9161;47.348;9.648;2022-09-24T04:47:48;12.40;99.90
18073;DHT22;9161;47.348;9.648;2022-09-24T04:52:52;12.40;99.90
18073;DHT22;9161;47.348;9.648;2022-09-24T04:57:55;12.40;99.90
18073;DHT22;9161;47.348;9.648;2022-09-24T05:02:59;12.50;99.90
18073;DHT22;9161;47.348;9.648;2022-09-24T05:08:03;12.40;99.90
18073;DHT22;9161;47.348;9.648;2022-09-24T05:13:05;12.30;99.90
18073;DHT22;9161;47.348;9.648;2022-09-24T05:18:09;12.20;99.90
18073;DHT22;9161;47.348;9.648;2022-09-24T05:23:11;12.20;99.90
18073;DHT22;9161;47.348;9.648;2022-09-24T05:28:13;12.30;99.90
18073;DHT22;9161;47.348;9.648;2022-09-24T05:33:16;12.30;99.90
18073;DHT22;9161;47.348;9.648;2022-09-24T05:38:19;12.30;99.90
18073;DHT22;9161;47.348;9.648;2022-09-24T05:43:21;12.30;99.90
18073;DHT22;9161;47.348;9.648;2022-09-24T05:48:25;12.30;99.90
18073;DHT22;9161;47.348;9.648;2022-09-24T05:53:27;12.30;99.90
18073;DHT22;9161;47.348;9.648;2022-09-24T05:58:29;12.40;99.90
18073;DHT22;9161;47.348;9.648;2022-09-24T06:03:32;12.50;99.90
18073;DHT22;9161;47.348;9.648;2022-09-24T06:08:35;12.50;99.90
18073;DHT22;9161;47.348;9.648;2022-09-24T06:13:37;12.60;99.90
18073;DHT22;9161;47.348;9.648;2022-09-24T06:18:42;12.60;99.90
18073;DHT22;9161;47.348;9.648;2022-09-24T06:23:44;12.50;99.90
18073;DHT22;9161;47.348;9.648;2022-09-24T06:28:46;12.60;99.90
18073;DHT22;9161;47.348;9.648;2022-09-24T06:33:49;12.70;99.90
18073;DHT22;9161;47.348;9.648;2022-09-24T06:38:52;12.80;99.90
18073;DHT22;9161;47.348;9.648;2022-09-24T06:43:54;12.90;99.90
18073;DHT22;9161;47.348;9.648;2022-09-24T06:48:58;12.90;99.90
18073;DHT22;9161;47.348;9.648;2022-09-24T06:54:00;13.00;99.90
18073;DHT22;9161;47.348;9.648;2022-09-24T06:59:02;13.10;99.90
18073;DHT22;9161;47.348;9.648;2022-09-24T07:04:07;13.10;99.90
18073;DHT22;9161;47.348;9.648;2022-09-24T07:09:09;13.20;99.90
18073;DHT22;9161;47.348;9.648;2022-09-24T07:14:11;13.10;99.90
18073;DHT22;9161;47.348;9.648;2022-09-24T07:19:14;13.10;99.90
18073;DHT22;9161;47.348;9.648;2022-09-24T07:24:16;13.10;99.90
18073;DHT22;9161;47.348;9.648;2022-09-24T07:29:19;13.00;99.90
18073;DHT22;9161;47.348;9.648;2022-09-24T07:34:22;13.00;99.90
18073;DHT22;9161;47.348;9.648;2022-09-24T07:39:24;13.00;99.90
18073;DHT22;9161;47.348;9.648;2022-09-24T07:44:28;13.10;99.90
18073;DHT22;9161;47.348;9.648;2022-09-24T07:49:31;13.00;99.90
18073;DHT22;9161;47.348;9.648;2022-09-24T07:54:33;13.00;99.90
18073;DHT22;9161;47.348;9.648;2022-09-24T07:59:35;13.00;99.90
18073;DHT22;9161;47.348;9.648;2022-09-24T08:04:39;13.00;99.90
18073;DHT22;9161;47.348;9.648;2022-09-24T08:09:41;13.00;99.90
18073;DHT22;9161;47.348;9.648;2022-09-24T08:14:43;13.00;99.90
18073;DHT22;9161;47.348;9.648;2022-09-24T08:19:47;13.30;99.90
18073;DHT22;9161;47.348;9.648;2022-09-24T08:24:51;13.40;99.90
18073;DHT22;9161;47.348;9.648;2022-09-24T08:29:54;13.80;99.90
18073;DHT22;9161;47.348;9.648;2022-09-24T08:34:58;13.90;99.90
18073;DHT22;9161;47.348;9.648;2022-09-24T08:40:00;14.10;99.90
18073;DHT22;9161;47.348;9.648;2022-09-24T08:45:04;14.50;99.90
18073;DHT22;9161;47.348;9.648;2022-09-24T08:50:12;14.80;99.90
18073;DHT22;9161;47.348;9.648;2022-09-24T08:55:00;14.60;99.90
18073;DHT22;9161;47.348;9.648;2022-09-24T08:59:50;14.50;99.90
18073;DHT22;9161;47.348;9.648;2022-09-24T09:04:41;14.80;99.90
18073;DHT22;9161;47.348;9.648;2022-09-24T09:09:40;15.10;99.90
18073;DHT22;9161;47.348;9.648;2022-09-24T09:14:33;15.90;99.90
18073;DHT22;9161;47.348;9.648;2022-09-24T09:19:25;15.70;99.90
18073;DHT22;9161;47.348;9.648;2022-09-24T09:24:16;15.80;99.90
18073;DHT22;9161;47.348;9.648;2022-09-24T09:29:01;15.60;99.90
18073;DHT22;9161;47.348;9.648;2022-09-24T09:34:08;15.80;99.90
18073;DHT22;9161;47.348;9.648;2022-09-24T09:39:00;16.40;99.90
18073;DHT22;9161;47.348;9.648;2022-09-24T09:43:47;16.90;99.90
18073;DHT22;9161;47.348;9.648;2022-09-24T09:48:41;17.20;99.90
18073;DHT22;9161;47.348;9.648;2022-09-24T09:53:27;16.70;99.90
18073;DHT22;9161;47.348;9.648;2022-09-24T09:58:18;16.90;99.90
18073;DHT22;9161;47.348;9.648;2022-09-24T10:03:04;17.10;99.90
18073;DHT22;9161;47.348;9.648;2022-09-24T10:07:49;17.30;99.90
18073;DHT22;9161;47.348;9.648;2022-09-24T10:12:34;17.80;99.90
18073;DHT22;9161;47.348;9.648;2022-09-24T10:17:18;18.10;99.90
18073;DHT22;9161;47.348;9.648;2022-09-24T10:22:08;18.50;99.90
18073;DHT22;9161;47.348;9.648;2022-09-24T10:26:54;18.90;99.90
18073;DHT22;9161;47.348;9.648;2022-09-24T10:31:39;19.30;99.90
18073;DHT22;9161;47.348;9.648;2022-09-24T10:36:25;20.00;99.90
18073;DHT22;9161;47.348;9.648;2022-09-24T10:46:16;19.90;99.90
18073;DHT22;9161;47.348;9.648;2022-09-24T10:51:09;19.70;99.90
18073;DHT22;9161;47.348;9.648;2022-09-24T10:55:59;19.50;99.90
18073;DHT22;9161;47.348;9.648;2022-09-24T11:00:55;19.30;99.90
18073;DHT22;9161;47.348;9.648;2022-09-24T11:05:51;19.30;99.90
18073;DHT22;9161;47.348;9.648;2022-09-24T11:10:55;19.50;99.90
18073;DHT22;9161;47.348;9.648;2022-09-24T11:16:02;18.70;99.90
18073;DHT22;9161;47.348;9.648;2022-09-24T11:20:58;19.10;99.90
18073;DHT22;9161;47.348;9.648;2022-09-24T11:25:51;19.30;99.90
18073;DHT22;9161;47.348;9.648;2022-09-24T11:30:43;19.30;99.90
18073;DHT22;9161;47.348;9.648;2022-09-24T11:35:58;19.50;99.90
18073;DHT22;9161;47.348;9.648;2022-09-24T11:40:59;19.20;99.90
18073;DHT22;9161;47.348;9.648;2022-09-24T11:45:54;18.80;99.90
18073;DHT22;9161;47.348;9.648;2022-09-24T11:50:49;19.30;99.90
18073;DHT22;9161;47.348;9.648;2022-09-24T11:55:41;19.70;99.90
18073;DHT22;9161;47.348;9.648;2022-09-24T12:00:32;19.70;99.90
18073;DHT22;9161;47.348;9.648;2022-09-24T12:05:25;19.70;99.90
18073;DHT22;9161;47.348;9.648;2022-09-24T12:10:23;19.80;99.90
18073;DHT22;9161;47.348;9.648;2022-09-24T12:15:13;19.80;99.90
18073;DHT22;9161;47.348;9.648;2022-09-24T12:20:04;20.30;99.90
18073;DHT22;9161;47.348;9.648;2022-09-24T12:24:51;20.10;99.90
18073;DHT22;9161;47.348;9.648;2022-09-24T12:29:43;20.80;99.90
18073;DHT22;9161;47.348;9.648;2022-09-24T12:34:53;21.10;99.90
18073;DHT22;9161;47.348;9.648;2022-09-24T12:39:42;21.00;99.90
18073;DHT22;9161;47.348;9.648;2022-09-24T12:44:34;21.00;99.90
18073;DHT22;9161;47.348;9.648;2022-09-24T12:49:27;20.80;99.90
18073;DHT22;9161;47.348;9.648;2022-09-24T12:54:22;20.30;99.90
18073;DHT22;9161;47.348;9.648;2022-09-24T12:59:23;19.40;99.90
18073;DHT22;9161;47.348;9.648;2022-09-24T13:04:27;19.10;99.90
18073;DHT22;9161;47.348;9.648;2022-09-24T13:09:35;18.70;99.90
18073;DHT22;9161;47.348;9.648;2022-09-24T13:14:20;18.70;99.90
18073;DHT22;9161;47.348;9.648;2022-09-24T13:19:22;18.70;99.90
18073;DHT22;9161;47.348;9.648;2022-09-24T13:24:10;18.00;99.90
18073;DHT22;9161;47.348;9.648;2022-09-24T13:28:56;17.40;99.90
18073;DHT22;9161;47.348;9.648;2022-09-24T13:33:43;17.50;99.90
18073;DHT22;9161;47.348;9.648;2022-09-24T13:38:30;17.80;99.90
18073;DHT22;9161;47.348;9.648;2022-09-24T13:43:18;17.90;99.90
18073;DHT22;9161;47.348;9.648;2022-09-24T13:48:14;18.00;99.90
18073;DHT22;9161;47.348;9.648;2022-09-24T13:53:02;17.90;99.90
18073;DHT22;9161;47.348;9.648;2022-09-24T13:57:48;18.00;99.90
18073;DHT22;9161;47.348;9.648;2022-09-24T14:02:35;18.00;99.90
18073;DHT22;9161;47.348;9.648;2022-09-24T14:07:21;17.80;99.90
18073;DHT22;9161;47.348;9.648;2022-09-24T14:12:13;17.70;99.90
18073;DHT22;9161;47.348;9.648;2022-09-24T14:17:06;17.60;99.90
18073;DHT22;9161;47.348;9.648;2022-09-24T14:21:52;17.50;99.90
18073;DHT22;9161;47.348;9.648;2022-09-24T14:26:42;17.10;99.90
18073;DHT22;9161;47.348;9.648;2022-09-24T14:31:26;17.10;99.90
18073;DHT22;9161;47.348;9.648;2022-09-24T14:36:11;16.80;99.90
18073;DHT22;9161;47.348;9.648;2022-09-24T14:40:58;16.90;99.90
18073;DHT22;9161;47.348;9.648;2022-09-24T14:45:45;17.10;99.90
18073;DHT22;9161;47.348;9.648;2022-09-24T14:50:37;17.20;99.90
18073;DHT22;9161;47.348;9.648;2022-09-24T14:55:23;17.20;99.90
18073;DHT22;9161;47.348;9.648;2022-09-24T15:00:22;17.40;99.90
18073;DHT22;9161;47.348;9.648;2022-09-24T15:05:08;17.20;99.90
18073;DHT22;9161;47.348;9.648;2022-09-24T15:09:53;17.10;99.90
18073;DHT22;9161;47.348;9.648;2022-09-24T15:14:37;17.20;99.90
18073;DHT22;9161;47.348;9.648;2022-09-24T15:19:22;17.30;99.90
18073;DHT22;9161;47.348;9.648;2022-09-24T15:24:10;17.50;99.90
18073;DHT22;9161;47.348;9.648;2022-09-24T15:28:55;17.60;99.90
18073;DHT22;9161;47.348;9.648;2022-09-24T15:33:38;17.50;99.90
18073;DHT22;9161;47.348;9.648;2022-09-24T15:38:22;17.40;99.90
18073;DHT22;9161;47.348;9.648;2022-09-24T15:43:18;17.20;99.90
18073;DHT22;9161;47.348;9.648;2022-09-24T15:48:01;17.00;99.90
18073;DHT22;9161;47.348;9.648;2022-09-24T15:52:48;16.90;99.90
18073;DHT22;9161;47.348;9.648;2022-09-24T15:57:32;16.70;99.90
18073;DHT22;9161;47.348;9.648;2022-09-24T16:02:19;16.60;99.90
18073;DHT22;9161;47.348;9.648;2022-09-24T16:07:03;16.40;99.90
18073;DHT22;9161;47.348;9.648;2022-09-24T16:11:47;16.20;99.90
18073;DHT22;9161;47.348;9.648;2022-09-24T16:16:30;16.00;99.90
18073;DHT22;9161;47.348;9.648;2022-09-24T16:21:15;16.10;99.90
18073;DHT22;9161;47.348;9.648;2022-09-24T16:25:59;16.10;99.90
18073;DHT22;9161;47.348;9.648;2022-09-24T16:30:43;16.10;99.90
18073;DHT22;9161;47.348;9.648;2022-09-24T16:35:26;16.00;99.90
18073;DHT22;9161;47.348;9.648;2022-09-24T16:40:12;15.90;99.90
18073;DHT22;9161;47.348;9.648;2022-09-24T16:44:56;15.80;99.90
18073;DHT22;9161;47.348;9.648;2022-09-24T16:49:39;15.60;99.90
18073;DHT22;9161;47.348;9.648;2022-09-24T16:54:23;15.50;99.90
18073;DHT22;9161;47.348;9.648;2022-09-24T16:59:10;15.20;99.90
18073;DHT22;9161;47.348;9.648;2022-09-24T17:03:55;15.10;99.90
18073;DHT22;9161;47.348;9.648;2022-09-24T17:08:39;15.00;99.90
18073;DHT22;9161;47.348;9.648;2022-09-24T17:13:40;14.90;99.90
18073;DHT22;9161;47.348;9.648;2022-09-24T17:18:25;14.90;99.90
18073;DHT22;9161;47.348;9.648;2022-09-24T17:23:09;14.80;99.90
18073;DHT22;9161;47.348;9.648;2022-09-24T17:27:52;14.80;99.90
18073;DHT22;9161;47.348;9.648;2022-09-24T17:32:36;14.70;99.90
18073;DHT22;9161;47.348;9.648;2022-09-24T17:37:21;14.60;99.90
18073;DHT22;9161;47.348;9.648;2022-09-24T17:42:04;14.50;99.90
18073;DHT22;9161;47.348;9.648;2022-09-24T17:46:48;14.60;99.90
18073;DHT22;9161;47.348;9.648;2022-09-24T17:51:34;14.50;99.90
18073;DHT22;9161;47.348;9.648;2022-09-24T17:56:23;14.40;99.90
18073;DHT22;9161;47.348;9.648;2022-09-24T18:01:09;14.40;99.90
18073;DHT22;9161;47.348;9.648;2022-09-24T18:05:58;14.40;99.90
18073;DHT22;9161;47.348;9.648;2022-09-24T18:10:42;14.30;99.90
18073;DHT22;9161;47.348;9.648;2022-09-24T18:15:27;14.30;99.90
18073;DHT22;9161;47.348;9.648;2022-09-24T18:20:11;14.20;99.90
18073;DHT22;9161;47.348;9.648;2022-09-24T18:24:55;14.20;99.90
18073;DHT22;9161;47.348;9.648;2022-09-24T18:29:42;14.20;99.90
18073;DHT22;9161;47.348;9.648;2022-09-24T18:34:29;14.10;99.90
18073;DHT22;9161;47.348;9.648;2022-09-24T18:39:13;14.10;99.90
18073;DHT22;9161;47.348;9.648;2022-09-24T18:44:05;14.10;99.90
18073;DHT22;9161;47.348;9.648;2022-09-24T18:48:50;14.50;99.90
18073;DHT22;9161;47.348;9.648;2022-09-24T18:53:35;14.60;99.90
18073;DHT22;9161;47.348;9.648;2022-09-24T18:58:18;14.60;99.90
18073;DHT22;9161;47.348;9.648;2022-09-24T19:03:02;14.60;99.90
18073;DHT22;9161;47.348;9.648;2022-09-24T19:07:45;14.70;99.90
18073;DHT22;9161;47.348;9.648;2022-09-24T19:12:30;14.70;99.90
18073;DHT22;9161;47.348;9.648;2022-09-24T19:17:14;14.50;99.90
18073;DHT22;9161;47.348;9.648;2022-09-24T19:21:58;14.20;99.90
18073;DHT22;9161;47.348;9.648;2022-09-24T19:26:41;14.00;99.90
18073;DHT22;9161;47.348;9.648;2022-09-24T19:31:30;13.90;99.90
18073;DHT22;9161;47.348;9.648;2022-09-24T19:36:14;13.80;99.90
18073;DHT22;9161;47.348;9.648;2022-09-24T19:40:59;13.70;99.90
18073;DHT22;9161;47.348;9.648;2022-09-24T19:45:43;13.70;99.90
18073;DHT22;9161;47.348;9.648;2022-09-24T19:50:38;13.70;99.90
18073;DHT22;9161;47.348;9.648;2022-09-24T19:55:21;13.70;99.90
18073;DHT22;9161;47.348;9.648;2022-09-24T20:00:10;13.60;99.90
18073;DHT22;9161;47.348;9.648;2022-09-24T20:05:10;13.60;99.90
18073;DHT22;9161;47.348;9.648;2022-09-24T20:10:10;13.60;99.90
18073;DHT22;9161;47.348;9.648;2022-09-24T20:14:53;13.60;99.90
18073;DHT22;9161;47.348;9.648;2022-09-24T20:19:37;13.60;99.90
18073;DHT22;9161;47.348;9.648;2022-09-24T20:24:21;13.60;99.90
18073;DHT22;9161;47.348;9.648;2022-09-24T20:29:07;13.60;99.90
18073;DHT22;9161;47.348;9.648;2022-09-24T20:33:51;13.60;99.90
18073;DHT22;9161;47.348;9.648;2022-09-24T20:38:34;13.50;99.90
18073;DHT22;9161;47.348;9.648;2022-09-24T20:43:19;13.60;99.90
18073;DHT22;9161;47.348;9.648;2022-09-24T20:48:04;13.60;99.90
18073;DHT22;9161;47.348;9.648;2022-09-24T20:52:47;13.60;99.90
18073;DHT22;9161;47.348;9.648;2022-09-24T20:57:31;13.50;99.90
18073;DHT22;9161;47.348;9.648;2022-09-24T21:02:14;13.50;99.90
18073;DHT22;9161;47.348;9.648;2022-09-24T21:06:59;13.50;99.90
18073;DHT22;9161;47.348;9.648;2022-09-24T21:11:43;13.50;99.90
18073;DHT22;9161;47.348;9.648;2022-09-24T21:16:29;13.50;99.90
18073;DHT22;9161;47.348;9.648;2022-09-24T21:21:14;13.50;99.90
18073;DHT22;9161;47.348;9.648;2022-09-24T21:26:11;13.50;99.90
18073;DHT22;9161;47.348;9.648;2022-09-24T21:30:55;13.50;99.90
18073;DHT22;9161;47.348;9.648;2022-09-24T21:35:44;13.40;99.90
18073;DHT22;9161;47.348;9.648;2022-09-24T21:40:27;13.40;99.90
18073;DHT22;9161;47.348;9.648;2022-09-24T21:45:12;13.30;99.90
18073;DHT22;9161;47.348;9.648;2022-09-24T21:49:56;13.30;99.90
18073;DHT22;9161;47.348;9.648;2022-09-24T21:54:40;13.20;99.90
18073;DHT22;9161;47.348;9.648;2022-09-24T21:59:23;13.20;99.90
18073;DHT22;9161;47.348;9.648;2022-09-24T22:04:26;13.20;99.90
18073;DHT22;9161;47.348;9.648;2022-09-24T22:09:10;13.10;99.90
18073;DHT22;9161;47.348;9.648;2022-09-24T22:13:54;13.10;99.90
18073;DHT22;9161;47.348;9.648;2022-09-24T22:18:42;13.00;99.90
18073;DHT22;9161;47.348;9.648;2022-09-24T22:23:27;13.00;99.90
18073;DHT22;9161;47.348;9.648;2022-09-24T22:28:11;13.00;99.90
18073;DHT22;9161;47.348;9.648;2022-09-24T22:33:01;13.00;99.90
18073;DHT22;9161;47.348;9.648;2022-09-24T22:37:44;13.00;99.90
18073;DHT22;9161;47.348;9.648;2022-09-24T22:42:29;13.00;99.90
18073;DHT22;9161;47.348;9.648;2022-09-24T22:47:13;13.00;99.90
18073;DHT22;9161;47.348;9.648;2022-09-24T22:51:56;12.90;99.90
18073;DHT22;9161;47.348;9.648;2022-09-24T22:56:39;12.80;99.90
18073;DHT22;9161;47.348;9.648;2022-09-24T23:01:37;12.70;99.90
18073;DHT22;9161;47.348;9.648;2022-09-24T23:06:29;12.80;99.90
18073;DHT22;9161;47.348;9.648;2022-09-24T23:11:36;12.70;99.90
18073;DHT22;9161;47.348;9.648;2022-09-24T23:16:37;12.70;99.90
18073;DHT22;9161;47.348;9.648;2022-09-24T23:22:01;12.60;99.90
18073;DHT22;9161;47.348;9.648;2022-09-24T23:27:49;12.60;99.90
18073;DHT22;9161;47.348;9.648;2022-09-24T23:39:06;12.70;99.90
18073;DHT22;9161;47.348;9.648;2022-09-24T23:44:15;12.60;99.90
18073;DHT22;9161;47.348;9.648;2022-09-24T23:49:52;12.60;99.90
18073;DHT22;9161;47.348;9.648;2022-09-24T23:55:37;12.50;99.90
